Time;durP1;ratioP1;P1;durP2;ratioP2;P2;SDS_P1;SDS_P2;PMS_P1;PMS_P2;Temp;Humidity;BMP_temperature;BMP_pressure;BME280_temperature;BME280_humidity;BME280_pressure;Samples;Min_cycle;Max_cycle;Signal;HPM_P1;HPM_P2
2022/11/06 00:00:04;;;;;;;22.98;21.10;;;;;;;11.63;65.22;101352.75;5012497;28;20071;-72
2022/11/06 00:02:30;;;;;;;20.83;19.00;;;;;;;11.65;65.23;101353.34;5013448;28;20033;-72
2022/11/06 00:06:46;;;;;;;21.27;20.10;;;;;;;11.63;65.13;101349.22;5013432;28;20022;-74
2022/11/06 00:07:45;;;;;;;19.70;18.63;;;;;;;11.62;65.30;101348.41;5014057;28;20038;-73
2022/11/06 00:10:11;;;;;;;22.95;20.92;;;;;;;11.62;65.39;101343.00;5013305;28;20018;-75
2022/11/06 00:12:36;;;;;;;21.30;19.88;;;;;;;11.61;65.15;101344.03;5017207;28;20037;-73
2022/11/06 00:15:01;;;;;;;22.77;21.13;;;;;;;11.62;65.23;101340.28;5032453;28;20114;-72
2022/11/06 00:17:27;;;;;;;21.60;20.13;;;;;;;11.63;65.16;101330.28;5033822;28;20445;-72
2022/11/06 00:19:52;;;;;;;22.75;20.92;;;;;;;11.62;65.21;101324.06;5013612;28;20029;-72
2022/11/06 00:22:17;;;;;;;23.05;21.17;;;;;;;11.62;65.15;101321.34;5013280;28;20084;-72
2022/11/06 00:24:43;;;;;;;22.60;21.20;;;;;;;11.62;65.13;101325.94;5013231;28;20030;-73
2022/11/06 00:27:08;;;;;;;23.27;21.63;;;;;;;11.62;65.27;101332.16;5013363;28;20521;-72
2022/11/06 00:29:34;;;;;;;20.50;19.20;;;;;;;11.61;65.08;101327.81;5013281;28;20422;-73
2022/11/06 00:31:59;;;;;;;22.90;21.23;;;;;;;11.62;65.25;101331.34;5013182;28;20425;-73
2022/11/06 00:34:24;;;;;;;20.58;19.40;;;;;;;11.62;65.18;101320.53;5013496;28;20021;-72
2022/11/06 00:36:50;;;;;;;20.15;18.83;;;;;;;11.63;65.24;101322.16;5013216;28;20077;-72
2022/11/06 00:39:15;;;;;;;21.40;19.58;;;;;;;11.62;65.19;101328.66;5011900;28;20055;-72
2022/11/06 00:41:41;;;;;;;22.20;20.65;;;;;;;11.62;65.18;101329.47;5013192;28;20062;-73
2022/11/06 00:44:09;;;;;;;21.65;20.23;;;;;;;11.60;65.20;101328.06;5012325;28;20049;-73
2022/11/06 00:46:35;;;;;;;22.53;20.57;;;;;;;11.60;65.16;101328.88;5012702;28;20029;-74
2022/11/06 00:49:01;;;;;;;20.85;19.35;;;;;;;11.61;65.39;101330.50;5012560;28;20026;-73
2022/11/06 00:51:39;;;;;;;20.70;19.17;;;;;;;11.61;65.28;101330.50;5013545;28;20343;-73
2022/11/06 00:54:08;;;;;;;21.05;19.52;;;;;;;11.61;65.16;101332.41;5012265;28;20036;-72
2022/11/06 00:56:34;;;;;;;20.15;18.95;;;;;;;11.60;65.15;101320.75;5012762;28;20037;-72
2022/11/06 00:59:02;;;;;;;21.60;20.17;;;;;;;11.60;65.06;101326.16;5012615;28;20030;-72
2022/11/06 01:01:30;;;;;;;21.23;19.90;;;;;;;11.61;65.12;101329.69;5012728;28;20386;-73
2022/11/06 01:04:01;;;;;;;21.35;19.42;;;;;;;11.61;65.01;101326.97;5012580;28;20032;-72
2022/11/06 01:06:30;;;;;;;20.58;19.30;;;;;;;11.60;65.09;101320.75;5012539;28;20030;-71
2022/11/06 01:08:56;;;;;;;20.67;19.13;;;;;;;11.60;65.21;101312.63;5019154;28;20053;-72
2022/11/06 01:11:27;;;;;;;20.13;18.73;;;;;;;11.60;65.32;101309.13;5031549;28;20033;-72
2022/11/06 01:13:55;;;;;;;20.88;19.48;;;;;;;11.59;64.98;101308.28;5031393;28;20068;-74
2022/11/06 01:16:22;;;;;;;20.08;18.83;;;;;;;11.59;65.26;101293.91;5012643;28;20025;-71
2022/11/06 01:18:47;;;;;;;19.90;18.80;;;;;;;11.59;65.06;101288.50;5012203;28;20149;-72
2022/11/06 01:21:19;;;;;;;22.02;20.58;;;;;;;11.59;65.11;101294.75;5011089;28;20570;-72
2022/11/06 01:23:45;;;;;;;18.83;17.83;;;;;;;11.59;65.03;101292.06;5012050;28;20427;-73
2022/11/06 01:26:12;;;;;;;21.23;20.00;;;;;;;11.58;65.22;101301.22;5012473;28;20030;-72
2022/11/06 01:28:39;;;;;;;19.67;18.58;;;;;;;11.58;65.05;101297.69;5012257;28;20549;-72
2022/11/06 01:31:06;;;;;;;22.00;20.60;;;;;;;11.58;65.28;101298.50;5012188;28;20041;-72
2022/11/06 01:33:32;;;;;;;19.88;18.45;;;;;;;11.58;65.05;101292.28;5012549;28;20474;-71
2022/11/06 01:35:58;;;;;;;19.75;18.45;;;;;;;11.56;65.18;101292.50;5011803;28;20141;-71
2022/11/06 01:38:24;;;;;;;20.20;18.85;;;;;;;11.57;65.08;101293.34;5011730;28;20025;-71
2022/11/06 01:40:50;;;;;;;20.60;18.75;;;;;;;11.57;65.28;101298.78;5012451;28;20465;-73
2022/11/06 01:43:35;;;;;;;21.45;20.13;;;;;;;11.57;65.09;101306.88;5011691;28;20022;-72
2022/11/06 01:46:00;;;;;;;20.25;18.85;;;;;;;11.56;65.11;101302.50;5012013;28;20156;-72
2022/11/06 01:48:27;;;;;;;19.13;17.80;;;;;;;11.56;65.02;101300.63;5027337;28;20061;-72
2022/11/06 01:50:56;;;;;;;21.02;19.83;;;;;;;11.56;65.42;101295.22;5011075;28;20044;-71
2022/11/06 01:53:23;;;;;;;20.42;19.20;;;;;;;11.55;65.15;101285.47;5011266;28;20405;-71
2022/11/06 01:55:52;;;;;;;20.73;19.60;;;;;;;11.55;65.14;101284.66;5012459;28;20113;-72
2022/11/06 01:58:21;;;;;;;21.73;20.27;;;;;;;11.55;65.06;101279.25;5014314;28;20026;-72
2022/11/06 02:00:47;;;;;;;19.25;17.85;;;;;;;11.55;65.07;101279.25;5016118;28;20057;-72
2022/11/06 02:03:13;;;;;;;21.80;20.38;;;;;;;11.55;64.99;101279.25;5015361;28;20075;-73
2022/11/06 02:05:40;;;;;;;19.95;18.80;;;;;;;11.55;64.91;101279.25;5021515;28;20104;-71
2022/11/06 02:08:09;;;;;;;21.13;19.42;;;;;;;11.54;65.18;101282.97;5034824;28;20462;-73
2022/11/06 02:10:35;;;;;;;20.77;19.58;;;;;;;11.54;65.23;101273.00;5035622;28;20034;-72
2022/11/06 02:13:09;;;;;;;20.60;19.23;;;;;;;11.55;65.16;101265.72;5034410;28;20030;-74
2022/11/06 02:15:49;;;;;;;21.38;19.73;;;;;;;11.55;64.88;101255.69;5034541;28;20420;-72
2022/11/06 02:18:48;;;;;;;21.90;20.45;;;;;;;11.55;65.11;101260.28;5034920;28;20021;-72
2022/11/06 02:21:46;;;;;;;21.65;20.05;;;;;;;11.53;65.19;101249.69;5034682;28;20025;-71
2022/11/06 02:24:45;;;;;;;23.25;21.20;;;;;;;11.53;65.04;101255.09;5034212;28;20090;-73
2022/11/06 02:27:23;;;;;;;19.98;18.83;;;;;;;11.52;65.05;101256.19;5034904;28;20479;-72
2022/11/06 02:29:54;;;;;;;21.15;19.65;;;;;;;11.51;65.08;101249.09;5034203;28;20025;-72
2022/11/06 02:32:51;;;;;;;21.13;19.73;;;;;;;11.53;65.05;101243.47;5034762;28;20025;-73
2022/11/06 02:35:17;;;;;;;23.13;21.25;;;;;;;11.52;65.11;101247.25;5033801;28;20049;-71
2022/11/06 02:37:45;;;;;;;20.33;19.08;;;;;;;11.51;64.95;101238.28;5034897;28;20029;-73
2022/11/06 02:40:14;;;;;;;20.67;19.45;;;;;;;11.52;65.06;101242.66;5019226;28;20433;-72
2022/11/06 02:42:44;;;;;;;21.15;19.02;;;;;;;11.52;65.11;101233.72;5015102;28;20432;-70
2022/11/06 02:45:13;;;;;;;21.67;20.20;;;;;;;11.52;64.88;101239.13;5014864;28;20536;-72
2022/11/06 02:47:41;;;;;;;19.23;17.98;;;;;;;11.52;65.09;101241.84;5015454;28;20108;-73
2022/11/06 02:50:11;;;;;;;20.33;18.92;;;;;;;11.51;65.08;101240.19;5015321;28;20048;-71
2022/11/06 02:52:43;;;;;;;22.17;20.60;;;;;;;11.51;65.19;101243.69;5014963;28;20120;-70
2022/11/06 02:55:46;;;;;;;20.40;19.33;;;;;;;11.51;65.24;101242.88;5015207;28;20127;-72
2022/11/06 02:58:29;;;;;;;19.45;18.25;;;;;;;11.51;65.04;101254.50;5025236;28;20124;-72
2022/11/06 03:01:03;;;;;;;21.52;20.27;;;;;;;11.50;65.11;101258.28;5034269;28;20064;-73
2022/11/06 03:03:31;;;;;;;22.08;20.50;;;;;;;11.52;65.44;101263.47;5014412;28;20428;-70
2022/11/06 03:06:02;;;;;;;21.95;20.55;;;;;;;11.50;65.23;101263.69;5015325;28;20036;-70
2022/11/06 03:08:46;;;;;;;22.48;21.15;;;;;;;11.52;64.99;101247.25;5013957;28;20521;-71
2022/11/06 03:11:37;;;;;;;20.58;19.33;;;;;;;11.51;65.04;101235.56;5014634;28;20026;-73
2022/11/06 03:14:36;;;;;;;19.10;18.00;;;;;;;11.52;65.10;101244.53;5014418;28;20042;-70
2022/11/06 03:17:17;;;;;;;17.88;16.88;;;;;;;11.51;64.99;101224.75;5014266;28;20500;-71
2022/11/06 03:19:45;;;;;;;19.52;18.27;;;;;;;11.51;65.05;101218.53;5014795;28;20022;-70
2022/11/06 03:22:14;;;;;;;20.00;18.75;;;;;;;11.50;65.32;101216.91;5014698;28;20024;-71
2022/11/06 03:24:57;;;;;;;19.17;17.67;;;;;;;11.50;65.16;101217.72;5014984;28;20057;-71
2022/11/06 03:27:35;;;;;;;20.80;19.50;;;;;;;11.49;65.12;101210.66;5027897;28;20114;-71
2022/11/06 03:30:07;;;;;;;20.10;18.67;;;;;;;11.49;65.12;101205.25;5033945;28;20025;-73
2022/11/06 03:32:45;;;;;;;20.02;18.25;;;;;;;11.50;65.32;101203.38;5032806;28;20212;-72
2022/11/06 03:35:42;;;;;;;20.80;19.00;;;;;;;11.50;64.88;101204.19;5033418;28;20096;-70
2022/11/06 03:38:16;;;;;;;19.48;18.10;;;;;;;11.49;65.11;101199.84;5033931;28;20021;-71
2022/11/06 03:40:46;;;;;;;19.45;18.38;;;;;;;11.48;65.22;101195.47;5033569;28;20017;-71
2022/11/06 03:43:15;;;;;;;20.70;19.50;;;;;;;11.50;64.96;101182.53;5034206;28;20025;-72
2022/11/06 03:45:43;;;;;;;19.88;18.15;;;;;;;11.49;65.12;101172.78;5033908;28;20029;-72
2022/11/06 03:48:18;;;;;;;19.88;18.50;;;;;;;11.50;65.55;101170.91;5033329;28;20458;-72
2022/11/06 03:50:46;;;;;;;20.65;19.17;;;;;;;11.51;65.27;101169.84;5033449;28;20033;-71
2022/11/06 03:53:17;;;;;;;18.70;17.60;;;;;;;11.50;65.21;101165.50;5033648;28;20132;-70
2022/11/06 03:55:48;;;;;;;21.45;20.25;;;;;;;11.50;65.28;101168.19;5048781;28;20017;-71
2022/11/06 03:58:21;;;;;;;18.38;17.38;;;;;;;11.51;65.16;101175.25;5033905;28;20030;-72
2022/11/06 04:00:50;;;;;;;18.92;17.92;;;;;;;11.50;65.21;101177.13;5048774;28;20038;-71
2022/11/06 04:03:36;;;;;;;19.52;18.42;;;;;;;11.49;65.24;101178.22;5033721;28;20034;-72
2022/11/06 04:06:12;;;;;;;20.05;18.50;;;;;;;11.49;65.27;101175.50;5033076;28;20056;-72
2022/11/06 04:14:14;;;;;;;20.65;19.35;;;;;;;11.48;65.13;101160.31;5016981;28;20112;-71
2022/11/06 04:16:49;;;;;;;20.85;18.77;;;;;;;11.48;65.28;101153.00;5032796;28;20086;-71
2022/11/06 04:19:17;;;;;;;20.15;18.80;;;;;;;11.48;65.19;101149.50;5033024;28;20033;-70
2022/11/06 04:22:37;;;;;;;19.98;18.13;;;;;;;11.48;65.45;101147.59;5032654;28;20056;-71
2022/11/06 04:28:39;;;;;;;19.50;18.23;;;;;;;11.47;65.30;101140.56;5050434;28;20048;-70
2022/11/06 04:31:17;;;;;;;20.90;19.42;;;;;;;11.48;65.00;101138.66;5025004;28;20064;-70
2022/11/06 04:33:56;;;;;;;19.00;17.97;;;;;;;11.48;65.26;101125.16;5031432;28;20029;-70
2022/11/06 04:36:38;;;;;;;20.90;19.45;;;;;;;11.46;65.12;101116.44;5031989;28;20041;-71
2022/11/06 04:39:15;;;;;;;20.02;18.55;;;;;;;11.47;65.37;101118.91;5031763;28;20408;-70
2022/11/06 04:42:03;;;;;;;19.23;18.00;;;;;;;11.47;65.18;101123.50;5032062;28;20113;-71
2022/11/06 04:44:34;;;;;;;21.80;20.05;;;;;;;11.46;65.25;101116.44;5031939;28;20120;-71
2022/11/06 04:47:05;;;;;;;21.08;19.88;;;;;;;11.47;65.19;101135.16;5032383;28;20029;-69
2022/11/06 04:49:34;;;;;;;23.08;21.23;;;;;;;11.47;65.23;101137.03;5031267;28;20047;-70
2022/11/06 04:52:03;;;;;;;19.52;18.35;;;;;;;11.46;65.10;101133.53;5032948;28;20080;-73
2022/11/06 04:54:29;;;;;;;;;;;;;;;11.47;65.18;101116.22;5031941;28;20030;-72
2022/11/06 04:56:59;;;;;;;19.20;18.02;;;;;;;11.46;65.47;101108.31;5032390;28;19913;-71
2022/11/06 04:59:25;;;;;;;20.05;18.83;;;;;;;11.45;65.09;101107.50;5031657;28;20160;-73
2022/11/06 05:01:50;;;;;;;18.67;17.58;;;;;;;11.45;65.31;101104.00;5031568;28;20124;-71
2022/11/06 05:04:15;;;;;;;19.23;17.92;;;;;;;11.44;65.30;101105.88;5032855;28;20029;-71
2022/11/06 05:06:41;;;;;;;21.05;19.85;;;;;;;11.45;65.24;101102.09;5030834;28;20029;-70
2022/11/06 05:09:06;;;;;;;20.02;18.63;;;;;;;11.45;65.35;101091.28;5031144;28;20458;-71
2022/11/06 05:11:31;;;;;;;22.50;20.77;;;;;;;11.43;65.07;101081.75;5031750;28;20030;-71
2022/11/06 05:13:57;;;;;;;20.38;19.05;;;;;;;11.44;65.24;101086.94;5031867;28;20527;-73
2022/11/06 05:16:22;;;;;;;21.02;19.45;;;;;;;11.44;65.35;101094.22;5032081;28;20539;-71
2022/11/06 05:18:47;;;;;;;24.85;18.92;;;;;;;11.44;65.38;101092.34;5030372;28;20037;-73
2022/11/06 05:23:58;;;;;;;20.40;19.20;;;;;;;11.44;65.27;101102.31;5032050;28;20037;-71
2022/11/06 05:26:24;;;;;;;20.80;19.50;;;;;;;11.43;65.30;101098.00;5031858;28;20060;-70
2022/11/06 05:28:49;;;;;;;19.13;18.13;;;;;;;11.43;65.25;101092.59;5031444;28;20040;-70
2022/11/06 05:31:15;;;;;;;20.45;19.15;;;;;;;11.43;65.28;101098.00;5046401;28;20033;-72
2022/11/06 05:33:40;;;;;;;21.98;20.58;;;;;;;11.44;65.34;101102.31;5030799;28;20037;-72
2022/11/06 05:36:06;;;;;;;22.63;21.17;;;;;;;11.43;65.27;101087.16;5030758;28;20049;-71
2022/11/06 05:38:32;;;;;;;21.13;19.92;;;;;;;11.42;65.45;101091.75;5032147;28;20029;-72
2022/11/06 05:40:57;;;;;;;21.55;19.40;;;;;;;11.41;65.52;101083.88;5030955;28;20377;-71
2022/11/06 05:43:23;;;;;;;18.85;17.83;;;;;;;11.41;65.23;101082.00;5031600;28;20370;-72
2022/11/06 05:45:48;;;;;;;19.55;18.35;;;;;;;11.41;65.39;101084.69;5030358;28;20382;-72
2022/11/06 05:48:14;;;;;;;21.05;19.90;;;;;;;11.40;65.29;101077.66;5031652;28;20117;-71
2022/11/06 05:50:39;;;;;;;20.50;19.30;;;;;;;11.41;65.28;101073.06;5046338;28;20045;-70
2022/11/06 05:53:05;;;;;;;21.75;20.33;;;;;;;11.40;65.29;101056.00;5031738;28;20120;-70
2022/11/06 05:55:30;;;;;;;19.95;18.70;;;;;;;11.40;65.37;101056.00;5030843;28;20025;-72
2022/11/06 05:57:55;;;;;;;18.95;17.95;;;;;;;11.41;65.35;101056.84;5047022;28;20033;-70
2022/11/06 06:00:21;;;;;;;20.42;19.23;;;;;;;11.40;65.17;101056.00;5030587;28;20021;-71
2022/11/06 06:02:46;;;;;;;20.88;19.70;;;;;;;11.40;65.42;101061.44;5030570;28;20029;-73
2022/11/06 06:05:12;;;;;;;20.08;18.77;;;;;;;11.39;65.34;101064.34;5012019;28;20041;-72
2022/11/06 06:07:37;;;;;;;21.08;19.17;;;;;;;11.38;65.54;101058.13;5011749;28;20851;-73
2022/11/06 06:10:03;;;;;;;19.75;18.75;;;;;;;11.38;65.34;101052.72;5012369;28;20168;-71
2022/11/06 06:12:28;;;;;;;29.05;20.75;;;;;;;11.38;65.33;101051.91;5010919;28;20466;-72
2022/11/06 06:14:54;;;;;;;19.70;18.60;;;;;;;11.38;65.39;101051.91;5005829;28;20037;-70
2022/11/06 06:17:19;;;;;;;19.35;18.30;;;;;;;11.37;65.45;101051.09;5031431;28;20065;-71
2022/11/06 06:19:45;;;;;;;23.02;21.50;;;;;;;11.38;65.34;101046.50;5030954;28;20033;-71
2022/11/06 06:22:11;;;;;;;19.35;18.15;;;;;;;11.37;65.41;101055.69;5031327;28;20131;-70
2022/11/06 06:24:36;;;;;;;21.92;20.60;;;;;;;11.37;65.41;101048.38;5013337;28;20029;-71
2022/11/06 06:27:02;;;;;;;19.63;18.63;;;;;;;11.37;65.33;101059.22;5030541;28;20030;-71
2022/11/06 06:29:28;;;;;;;20.58;19.27;;;;;;;11.37;65.32;101061.09;5031117;28;20048;-70
2022/11/06 06:31:53;;;;;;;19.10;18.00;;;;;;;11.36;65.37;101065.66;5030706;28;20033;-72
2022/11/06 06:34:18;;;;;;;19.40;18.30;;;;;;;11.36;65.34;101060.25;5030929;28;20036;-72
2022/11/06 06:36:48;;;;;;;20.38;19.17;;;;;;;11.37;65.25;101052.97;5030745;28;20050;-71
2022/11/06 06:39:13;;;;;;;19.98;18.75;;;;;;;11.36;65.34;101051.31;5030445;28;20021;-71
2022/11/06 06:41:38;;;;;;;20.92;19.55;;;;;;;11.35;65.39;101058.63;5030623;28;20030;-71
2022/11/06 06:44:04;;;;;;;19.50;18.30;;;;;;;11.36;65.50;101052.13;5048394;28;20026;-72
2022/11/06 06:46:29;;;;;;;19.98;18.88;;;;;;;11.36;65.27;101054.03;5034638;28;20466;-71
2022/11/06 06:48:55;;;;;;;20.27;19.17;;;;;;;11.36;65.29;101040.50;5034429;28;20057;-72
2022/11/06 06:51:20;;;;;;;19.85;18.58;;;;;;;11.35;65.30;101041.56;5034439;28;20037;-72
2022/11/06 06:53:45;;;;;;;20.83;19.42;;;;;;;11.34;65.37;101046.16;5034354;28;20033;-71
2022/11/06 06:56:11;;;;;;;19.13;17.77;;;;;;;11.34;65.23;101040.75;5034372;28;20041;-72
2022/11/06 06:58:36;;;;;;;19.48;18.42;;;;;;;11.34;65.21;101040.75;5033999;28;20037;-71
2022/11/06 07:01:03;;;;;;;19.10;18.05;;;;;;;11.33;65.38;101044.50;5015026;28;20448;-70
2022/11/06 07:03:29;;;;;;;20.00;18.90;;;;;;;11.33;65.33;101031.00;5015261;28;20458;-71
2022/11/06 07:05:58;;;;;;;20.33;19.23;;;;;;;11.33;65.36;101022.88;5014498;28;20485;-70
2022/11/06 07:08:25;;;;;;;19.80;18.70;;;;;;;11.34;65.38;101024.53;5014933;28;20469;-71
2022/11/06 07:10:51;;;;;;;23.02;20.98;;;;;;;11.33;65.40;101027.47;5014672;28;20468;-71
2022/11/06 07:13:16;;;;;;;18.42;17.52;;;;;;;11.33;65.28;101033.69;5014815;28;20033;-71
2022/11/06 07:15:41;;;;;;;20.25;18.92;;;;;;;11.33;65.38;101032.88;5014373;28;20108;-71
2022/11/06 07:18:07;;;;;;;19.92;18.55;;;;;;;11.33;65.40;101032.88;5014648;28;20462;-71
2022/11/06 07:20:33;;;;;;;20.00;18.63;;;;;;;11.33;65.21;101027.47;5014639;28;20033;-71
2022/11/06 07:23:04;;;;;;;19.90;18.60;;;;;;;11.32;65.37;101028.53;5014263;28;20025;-71
2022/11/06 07:25:29;;;;;;;19.30;18.10;;;;;;;11.32;65.42;101026.66;5014663;28;20072;-71
2022/11/06 07:27:59;;;;;;;19.80;18.52;;;;;;;11.31;65.33;101019.59;5033620;28;20033;-71
2022/11/06 07:30:24;;;;;;;19.40;18.40;;;;;;;11.32;65.40;101031.25;5033719;28;20037;-71
2022/11/06 07:32:50;;;;;;;20.75;19.52;;;;;;;11.32;65.52;101017.72;5033131;28;20034;-71
2022/11/06 07:35:15;;;;;;;18.85;17.85;;;;;;;11.31;65.26;101014.19;5033583;28;20025;-71
2022/11/06 07:37:41;;;;;;;19.75;18.25;;;;;;;11.32;65.35;101006.91;5032846;28;20042;-72
2022/11/06 07:40:07;;;;;;;19.95;18.40;;;;;;;11.32;65.46;101004.19;5033855;28;20041;-70
2022/11/06 07:42:33;;;;;;;19.40;18.40;;;;;;;11.32;65.33;101010.44;5032909;28;20412;-74
2022/11/06 07:44:58;;;;;;;19.83;18.83;;;;;;;11.32;65.27;101001.50;5033894;28;20033;-73
2022/11/06 07:47:23;;;;;;;19.48;18.23;;;;;;;11.33;65.46;101009.34;5047995;28;20363;-71
2022/11/06 07:49:49;;;;;;;20.33;19.00;;;;;;;11.32;65.30;101007.72;5033221;28;20094;-71
2022/11/06 07:52:14;;;;;;;19.15;17.85;;;;;;;11.32;65.48;100994.19;5033437;28;20044;-71
2022/11/06 07:54:39;;;;;;;22.13;20.38;;;;;;;11.34;65.44;101002.91;5032128;28;20021;-75
2022/11/06 07:57:05;;;;;;;19.90;18.80;;;;;;;11.34;65.51;101004.75;5033286;28;20033;-71
2022/11/06 07:59:32;;;;;;;20.00;19.00;;;;;;;11.35;65.50;101001.00;5034202;28;20030;-71
2022/11/06 08:01:58;;;;;;;22.88;21.50;;;;;;;11.34;65.54;101002.91;5030775;28;20026;-71
2022/11/06 08:04:23;;;;;;;21.02;19.48;;;;;;;11.34;65.66;101002.91;5033089;28;20039;-71
2022/11/06 08:06:48;;;;;;;20.30;19.20;;;;;;;11.35;65.53;100993.72;5032502;28;20021;-73
2022/11/06 08:09:14;;;;;;;19.58;18.58;;;;;;;11.35;65.47;100991.00;5032888;28;20468;-71
2022/11/06 08:11:39;;;;;;;19.40;18.33;;;;;;;11.37;65.52;100993.47;5031951;28;20116;-70
2022/11/06 08:14:05;;;;;;;20.42;19.00;;;;;;;11.37;65.56;100985.38;5032704;28;20117;-72
2022/11/06 08:16:30;;;;;;;20.50;18.92;;;;;;;11.37;65.60;100985.38;5033222;28;20473;-71
2022/11/06 08:18:56;;;;;;;22.98;21.45;;;;;;;11.37;65.42;100988.06;5031928;28;20425;-71
2022/11/06 08:21:21;;;;;;;19.65;18.42;;;;;;;11.38;65.62;100987.00;5032992;28;20402;-71
2022/11/06 08:23:46;;;;;;;22.83;21.45;;;;;;;11.37;65.51;100986.19;5032493;28;20053;-72
2022/11/06 08:26:12;;;;;;;20.27;19.08;;;;;;;11.40;65.66;100991.09;5032300;28;20029;-71
2022/11/06 08:28:37;;;;;;;22.30;20.40;;;;;;;11.38;65.61;100977.00;5033008;28;20075;-71
2022/11/06 08:31:07;;;;;;;21.05;19.85;;;;;;;11.39;65.65;100975.09;5047248;28;20091;-72
2022/11/06 08:33:33;;;;;;;20.15;19.02;;;;;;;11.40;65.75;100968.66;5032557;28;20026;-71
2022/11/06 08:36:03;;;;;;;20.92;19.52;;;;;;;11.41;65.89;100972.97;5032257;28;20103;-72
2022/11/06 08:38:28;;;;;;;21.60;20.33;;;;;;;11.41;65.70;100970.28;5027678;28;20030;-70
2022/11/06 08:40:54;;;;;;;20.85;19.45;;;;;;;11.41;65.67;100962.97;5012747;28;20125;-72
2022/11/06 08:43:22;;;;;;;20.58;19.23;;;;;;;11.42;65.79;100958.41;5012144;28;20041;-72
2022/11/06 08:45:47;;;;;;;20.53;18.97;;;;;;;11.43;65.67;100958.16;5012456;28;20390;-71
2022/11/06 08:48:13;;;;;;;19.38;17.98;;;;;;;11.42;65.65;100943.00;5013214;28;20338;-70
2022/11/06 08:50:39;;;;;;;19.10;18.10;;;;;;;11.44;65.78;100949.00;5012981;28;20040;-70
2022/11/06 08:53:06;;;;;;;19.42;18.33;;;;;;;11.44;65.92;100940.03;5012447;28;20080;-72
2022/11/06 08:55:33;;;;;;;18.90;17.90;;;;;;;11.44;65.78;100950.84;5012931;28;20041;-71
2022/11/06 08:57:59;;;;;;;20.65;19.33;;;;;;;11.45;65.87;100945.22;5012897;28;20034;-71
2022/11/06 09:00:25;;;;;;;19.77;18.58;;;;;;;11.45;65.90;100939.00;5012631;28;20414;-70
2022/11/06 09:02:58;;;;;;;20.92;19.73;;;;;;;11.46;65.98;100937.91;5012276;28;20113;-71
2022/11/06 09:05:23;;;;;;;20.10;19.00;;;;;;;11.46;65.63;100933.34;5012742;28;20030;-71
2022/11/06 09:07:48;;;;;;;21.73;20.00;;;;;;;11.46;65.85;100927.09;5011394;28;20021;-71
2022/11/06 09:10:14;;;;;;;19.67;18.33;;;;;;;11.48;65.83;100914.16;5013051;28;20454;-71
2022/11/06 09:12:39;;;;;;;20.00;19.00;;;;;;;11.48;65.83;100922.25;5012794;28;20358;-71
2022/11/06 09:15:05;;;;;;;21.08;19.83;;;;;;;11.47;65.62;100910.63;5012192;28;20455;-71
2022/11/06 09:17:30;;;;;;;19.52;18.52;;;;;;;11.49;65.78;100907.69;5011466;28;20029;-70
2022/11/06 09:19:55;;;;;;;21.42;20.23;;;;;;;11.49;65.84;100899.56;5027454;28;20264;-70
2022/11/06 09:22:21;;;;;;;19.42;18.27;;;;;;;11.48;65.72;100898.72;5012644;28;20092;-70
2022/11/06 09:24:46;;;;;;;20.33;19.02;;;;;;;11.49;65.92;100899.56;5012781;28;20033;-70
2022/11/06 09:27:12;;;;;;;21.45;20.20;;;;;;;11.50;65.99;100900.38;5010649;28;20025;-71
2022/11/06 09:29:42;;;;;;;20.33;19.15;;;;;;;11.50;65.70;100912.03;5012174;28;20068;-72
2022/11/06 09:32:08;;;;;;;19.75;18.45;;;;;;;11.51;65.81;100908.25;5011913;28;20058;-70
2022/11/06 09:34:34;;;;;;;18.98;17.52;;;;;;;11.51;65.83;100894.72;5012530;28;20362;-71
2022/11/06 09:37:01;;;;;;;22.02;20.65;;;;;;;11.53;65.94;100891.78;5011366;28;20076;-70
2022/11/06 09:39:27;;;;;;;20.15;19.05;;;;;;;11.54;65.82;100893.41;5012501;28;20030;-71
2022/11/06 09:42:11;;;;;;;20.00;18.80;;;;;;;11.54;65.77;100896.09;5026978;28;20129;-72
2022/11/06 09:44:51;;;;;;;20.73;19.10;;;;;;;11.54;65.87;100896.97;5012332;28;20026;-72
2022/11/06 09:47:22;;;;;;;19.38;18.05;;;;;;;11.54;65.88;100893.41;5011869;28;20482;-72
2022/11/06 09:49:56;;;;;;;19.15;18.05;;;;;;;11.56;65.77;100885.88;5012226;28;20030;-71
2022/11/06 09:52:37;;;;;;;20.92;19.73;;;;;;;11.56;65.90;100892.09;5013361;28;20512;-72
2022/11/06 09:55:09;;;;;;;21.02;19.50;;;;;;;11.57;65.77;100892.94;5011374;28;20041;-71
2022/11/06 09:57:40;;;;;;;21.08;19.73;;;;;;;11.57;65.98;100891.03;5012314;28;20034;-71
2022/11/06 10:00:07;;;;;;;22.05;20.75;;;;;;;11.59;65.89;100890.78;5011666;28;20413;-73
2022/11/06 10:02:43;;;;;;;20.00;18.90;;;;;;;11.59;65.96;100883.50;5010899;28;20338;-72
2022/11/06 10:05:12;;;;;;;21.15;19.85;;;;;;;11.60;66.12;100882.44;5011523;28;20364;-72
2022/11/06 10:07:40;;;;;;;20.20;19.17;;;;;;;11.60;66.04;100879.72;5012218;28;20026;-73
2022/11/06 10:10:13;;;;;;;19.85;18.55;;;;;;;11.60;66.05;100874.31;5011687;28;20164;-71
2022/11/06 10:13:03;;;;;;;19.55;18.45;;;;;;;11.61;66.11;100857.00;5012075;28;20041;-72
2022/11/06 10:15:34;;;;;;;19.85;18.77;;;;;;;11.61;66.15;100867.81;5021880;28;20120;-71
2022/11/06 10:18:36;;;;;;;20.60;19.17;;;;;;;11.63;66.07;100854.88;5030695;28;20053;-70
2022/11/06 10:21:10;;;;;;;21.45;19.73;;;;;;;11.63;65.91;100863.00;5035057;28;20030;-71
2022/11/06 10:23:41;;;;;;;21.67;20.30;;;;;;;11.66;66.05;100867.91;5035375;28;20461;-71
2022/11/06 10:26:12;;;;;;;20.83;19.40;;;;;;;11.68;66.16;100873.09;5032420;28;20033;-71
2022/11/06 10:28:56;;;;;;;21.33;19.88;;;;;;;11.69;66.16;100856.63;5015811;28;20100;-71
2022/11/06 10:31:47;;;;;;;19.38;18.17;;;;;;;11.69;65.92;100855.78;5015396;28;20293;-70
2022/11/06 10:34:40;;;;;;;21.88;20.33;;;;;;;11.70;65.99;100850.13;5015270;28;20022;-71
2022/11/06 10:37:38;;;;;;;22.30;21.10;;;;;;;11.70;65.96;100844.72;5015280;28;20057;-72
2022/11/06 10:40:06;;;;;;;20.17;18.93;;;;;;;11.72;66.05;100847.19;5014086;28;20054;-71
2022/11/06 10:42:36;;;;;;;19.05;17.95;;;;;;;11.74;66.03;100838.78;5015477;28;20028;-71
2022/11/06 10:45:05;;;;;;;22.10;20.70;;;;;;;11.75;65.95;100840.44;5014951;28;20073;-70
2022/11/06 10:47:46;;;;;;;;;;;;;;;11.77;65.97;100828.31;5016226;28;20018;-71
2022/11/06 10:50:14;;;;;;;19.90;18.70;;;;;;;11.77;66.16;100822.06;5018938;28;20393;-71
2022/11/06 10:53:07;;;;;;;18.08;17.17;;;;;;;11.77;66.15;100812.06;5034033;28;20140;-71
2022/11/06 10:56:17;;;;;;;21.33;19.70;;;;;;;11.80;65.79;100816.16;5034599;28;20024;-71
2022/11/06 10:58:43;;;;;;;20.42;18.92;;;;;;;11.81;65.95;100806.97;5051076;28;20028;-71
2022/11/06 11:01:12;;;;;;;21.63;20.30;;;;;;;11.81;65.76;100796.97;5037730;28;20436;-71
2022/11/06 11:03:43;;;;;;;22.27;20.55;;;;;;;11.85;65.97;100802.72;5033689;28;20100;-71
2022/11/06 11:06:08;;;;;;;22.63;20.90;;;;;;;11.88;65.96;100804.94;5033959;28;20052;-72
2022/11/06 11:08:48;;;;;;;21.08;19.65;;;;;;;11.89;65.81;100796.59;5033792;28;20408;-73
2022/11/06 11:11:13;;;;;;;22.98;21.08;;;;;;;11.91;65.64;100797.13;5034104;28;20034;-71
2022/11/06 11:13:51;;;;;;;21.33;20.02;;;;;;;11.93;65.75;100788.75;5035027;28;20022;-72
2022/11/06 11:16:47;;;;;;;23.80;22.17;;;;;;;11.96;65.90;100792.88;5014501;28;20076;-71
2022/11/06 11:19:34;;;;;;;21.67;20.25;;;;;;;11.98;65.70;100796.16;5013744;28;20037;-71
2022/11/06 11:22:16;;;;;;;20.08;18.60;;;;;;;11.98;65.87;100788.84;5014558;28;20018;-71
2022/11/06 11:24:57;;;;;;;20.58;19.45;;;;;;;12.01;65.76;100782.09;5030497;28;20124;-70
2022/11/06 11:27:24;;;;;;;20.23;18.60;;;;;;;12.02;65.85;100781.84;5033639;28;20108;-70
2022/11/06 11:29:50;;;;;;;21.50;19.85;;;;;;;12.05;65.74;100775.13;5033374;28;20038;-70
2022/11/06 11:32:19;;;;;;;21.50;20.13;;;;;;;12.07;65.76;100784.63;5032983;28;20032;-69
2022/11/06 11:34:55;;;;;;;20.58;19.42;;;;;;;12.08;65.76;100769.19;5033602;28;20033;-71